Latest Weather Observations for Southern Cross Airport

IDW60801

Issued at 7:35 pm WST Thursday 27 November 2014 (issued every 30 minutes, with the page automatically refreshed every 10 minutes)

About weather observations | Map of weather stations | Latest weather observations for WA | Other Formats
Station Details ID: 012320 Name: SOUTHERN CROSS AIRFIELD Lat: -31.24 Lon: 119.36 Height: 347.4 m
Data from the previous 72 hours. | See also: Recent months at Southern Cross Airport
Date/Time
WST
Temp
°C
App
Temp
°C
Dew
Point
Rel
Hum
%
Delta-T
°C
Wind Press
QNH
hPa
Press
MSL
hPa
Rain
since 9 am
mm
Dir
 
Spd
km/h
Gust
km/h
Spd
kts
Gust
kts
27/07:30pm 20.1 18.1 16.5 80 2.2 SSE 22 28 12 15 1011.2 1009.8 6.0
27/07:00pm 20.6 19.0 16.0 75 2.8 SE 19 24 10 13 1010.3 1008.9 5.8
27/06:52pm 20.0 16.3 15.0 73 3.0 SSE 28 46 15 25 1010.2 1008.8 5.8
27/06:40pm 19.2 15.9 14.0 72 3.0 ESE 24 39 13 21 1010.7 1009.3 5.8
27/06:31pm 20.6 13.6 16.4 77 2.6 NE 48 67 26 36 1010.8 1009.4 5.8
27/06:30pm 20.5 12.3 16.1 76 2.7 NE 54 67 29 36 1010.6 1009.2 5.8
27/06:28pm 19.5 15.9 15.2 76 2.6 NNE 28 50 15 27 1011.1 1009.7 5.4
27/06:14pm 22.5 20.6 17.6 74 3.1 W 24 32 13 17 1010.4 1009.0 3.8
27/06:00pm 25.4 21.8 14.2 50 6.8 ESE 26 35 14 19 1008.3 1006.9 1.4
27/05:30pm 26.6 24.3 14.7 48 7.3 ESE 20 28 11 15 1007.3 1005.9 1.4
27/05:00pm 27.9 24.8 14.5 44 8.2 ESE 24 33 13 18 1007.1 1005.6 1.4
27/04:30pm 28.4 24.2 13.5 40 9.0 ESE 28 32 15 17 1007.2 1005.8 1.4
27/04:00pm 31.5 29.0 14.2 35 10.7 S 20 26 11 14 1007.2 1005.8 1.4
27/03:30pm 32.5 31.6 12.7 30 12.0 N 9 19 5 10 1007.0 1005.5 1.4
27/03:00pm 32.7 30.4 12.9 30 12.0 N 17 22 9 12 1007.5 1006.1 1.4
27/02:30pm 32.0 31.7 12.8 31 11.6 - 6 - 3 - 1008.0 1006.6 1.4
27/02:00pm 29.3 29.8 16.5 46 8.1 WSW 9 11 5 6 1008.8 1007.3 1.4
27/01:38pm 25.8 21.7 14.9 51 6.7 NW 30 54 16 29 1009.3 1007.8 0.6
27/01:30pm 28.3 26.9 14.5 43 8.4 WNW 15 41 8 22 1009.4 1007.9 0.2
27/01:00pm 32.9 29.8 10.3 25 13.2 NNW 17 28 9 15 1009.4 1007.9 0.0
27/12:30pm 33.6 30.1 10.9 25 13.4 NW 20 37 11 20 1009.8 1008.4 0.0
27/12:00pm 33.0 30.1 10.9 26 13.0 N 17 26 9 14 1010.2 1008.8 0.0
27/11:30am 33.2 29.6 9.9 24 13.5 NW 19 24 10 13 1010.6 1009.2 0.0
27/11:00am 32.2 28.4 9.1 24 13.2 N 19 30 10 16 1011.3 1009.9 0.0
27/10:30am 30.4 27.1 8.2 25 12.4 NNW 15 24 8 13 1011.7 1010.2 0.0
27/10:00am 30.2 25.9 8.0 25 12.4 NNE 20 35 11 19 1012.2 1010.7 0.0
27/09:30am 28.5 25.4 7.1 26 11.6 NNE 13 20 7 11 1012.6 1011.2 0.0
27/09:00am 28.1 24.5 6.8 26 11.5 ENE 15 22 8 12 1012.6 1011.2 0.2
27/08:30am 27.7 23.0 5.3 24 11.7 NE 19 26 10 14 1012.9 1011.5 0.2
27/08:00am 26.9 22.0 5.2 25 11.3 ENE 20 26 11 14 1013.2 1011.8 0.2
27/07:30am 25.9 20.2 4.9 26 10.8 NE 24 33 13 18 1013.4 1012.0 0.2
27/07:00am 25.0 19.7 5.2 28 10.2 ENE 22 30 12 16 1013.6 1012.2 0.2
27/06:30am 23.2 19.2 6.5 34 8.7 ENE 17 24 9 13 1013.7 1012.3 0.2
27/06:00am 22.4 18.7 7.8 39 7.8 ENE 17 24 9 13 1013.3 1011.9 0.2
27/05:30am 22.0 18.6 10.5 48 6.4 E 19 30 10 16 1013.0 1011.6 0.2
27/05:00am 21.0 19.8 12.9 60 4.7 E 11 15 6 8 1012.9 1011.5 0.2
27/04:30am 19.9 20.2 15.1 74 2.9 SSE 7 9 4 5 1013.1 1011.7 0.2
27/04:00am 20.1 19.6 14.9 72 3.1 S 11 13 6 7 1013.2 1011.8 0.2
27/03:30am 20.3 18.0 14.7 70 3.3 ESE 20 32 11 17 1012.7 1011.3 0.2
27/03:00am 21.6 20.4 14.0 62 4.5 SE 13 19 7 10 1013.5 1012.1 0.0
27/02:30am 21.2 20.5 13.1 60 4.7 S 9 13 5 7 1013.3 1011.9 0.0
27/02:00am 21.2 19.8 13.4 61 4.6 SE 13 15 7 8 1013.6 1012.2 0.0
27/01:30am 21.5 20.2 13.7 61 4.6 S 13 17 7 9 1014.1 1012.7 0.0
27/01:00am 21.7 20.5 13.9 61 4.6 S 13 17 7 9 1014.9 1013.5 0.0
27/12:30am 21.9 21.1 14.0 61 4.7 S 11 13 6 7 1015.1 1013.7 0.0
27/12:00am 21.9 19.6 14.0 61 4.7 SW 19 24 10 13 1015.2 1013.8 0.0
 
Date/Time
WST
Temp
°C
App
Temp
°C
Dew
Point
Rel
Hum
%
Delta-T
°C
Wind Press
QNH
hPa
Press
MSL
hPa
Rain
since 9 am
mm
Dir
 
Spd
km/h
Gust
km/h
Spd
kts
Gust
kts
26/11:30pm 22.6 18.8 13.7 57 5.3 WSW 26 39 14 21 1015.0 1013.6 0.0
26/11:00pm 23.6 17.5 12.9 51 6.3 W 37 52 20 28 1014.8 1013.3 0.0
26/10:53pm 24.0 19.6 12.9 50 6.5 W 28 50 15 27 1014.4 1013.0 0.0
26/10:30pm 26.7 20.4 7.2 29 10.5 WNW 30 43 16 23 1013.9 1012.5 0.0
26/10:00pm 26.7 20.7 3.2 22 11.8 ENE 24 33 13 18 1012.2 1010.7 0.0
26/09:30pm 26.9 20.5 3.4 22 11.9 ENE 26 37 14 20 1012.2 1010.7 0.0
26/09:00pm 27.1 20.4 3.6 22 11.9 E 28 43 15 23 1011.9 1010.4 0.0
26/08:30pm 27.6 20.8 3.3 21 12.3 E 28 41 15 22 1012.0 1010.5 0.0
26/08:00pm 28.2 21.5 3.8 21 12.5 ENE 28 35 15 19 1012.2 1010.7 0.0
26/07:30pm 29.1 22.1 3.9 20 13.0 ENE 30 41 16 22 1012.2 1010.7 0.0
26/07:00pm 29.7 22.8 4.4 20 13.2 ENE 30 41 16 22 1011.8 1010.3 0.0
26/06:30pm 30.0 23.5 4.6 20 13.3 ENE 28 39 15 21 1011.6 1010.1 0.0
26/06:00pm 30.7 23.4 4.4 19 13.8 ENE 32 44 17 24 1011.2 1009.8 0.0
26/05:30pm 31.5 23.6 4.3 18 14.3 NE 35 46 19 25 1010.8 1009.4 0.0
26/05:00pm 31.5 23.6 4.3 18 14.3 NE 35 50 19 27 1010.8 1009.4 0.0
26/04:30pm 32.7 25.0 3.6 16 15.3 NE 33 46 18 25 1010.8 1009.4 0.0
26/04:00pm 32.8 25.2 3.7 16 15.3 NE 33 46 18 25 1011.0 1009.6 0.0
26/03:30pm 32.3 25.2 3.3 16 15.1 ENE 30 41 16 22 1011.6 1010.1 0.0
26/03:00pm 32.4 25.3 3.4 16 15.1 ENE 30 41 16 22 1012.3 1010.9 0.0
26/02:30pm 32.4 24.9 3.4 16 15.1 ENE 32 48 17 26 1012.5 1011.1 0.0
26/02:14pm 32.7 25.8 2.7 15 15.5 ENE 28 48 15 26 1012.6 1011.2 0.0
26/02:00pm 32.5 25.6 2.5 15 15.4 ENE 28 41 15 22 1012.8 1011.4 0.0
26/01:50pm 32.6 25.7 2.6 15 15.5 ENE 28 46 15 25 1012.8 1011.4 0.0
26/01:30pm 32.5 25.6 2.5 15 15.4 ENE 28 41 15 22 1013.0 1011.6 0.0
26/01:00pm 32.7 26.0 1.7 14 15.8 ENE 26 37 14 20 1013.4 1012.0 0.0
26/12:30pm 31.2 23.4 1.5 15 14.9 ENE 32 46 17 25 1014.0 1012.6 0.0
26/12:00pm 30.9 22.8 1.3 15 14.8 ENE 33 44 18 24 1014.3 1012.9 0.0
26/11:39am 30.4 23.0 1.8 16 14.4 ENE 30 48 16 26 1015.0 1013.6 0.0
26/11:30am 29.3 20.9 1.7 17 13.7 ENE 35 43 19 23 1014.9 1013.5 0.0
26/11:00am 28.0 21.0 2.2 19 12.8 ENE 28 37 15 20 1015.7 1014.3 0.0
26/10:30am 27.5 19.9 2.6 20 12.4 NE 32 44 17 24 1016.4 1015.0 0.0
26/10:00am 27.8 20.9 2.8 20 12.5 NE 28 37 15 20 1016.5 1015.1 0.0
26/09:30am 25.9 18.7 3.2 23 11.3 NE 30 39 16 21 1017.1 1015.7 0.0
26/09:00am 24.9 18.6 3.5 25 10.7 ENE 26 37 14 20 1017.1 1015.7 0.0
26/08:30am 23.7 18.1 3.6 27 10.0 ENE 22 32 12 17 1017.5 1016.2 0.0
26/08:00am 22.2 17.0 3.8 30 9.0 ENE 20 30 11 16 1017.8 1016.4 0.0
26/07:30am 21.9 16.9 3.6 30 9.0 ENE 19 26 10 14 1017.9 1016.5 0.0
26/07:00am 21.5 16.6 4.1 32 8.6 ENE 19 26 10 14 1017.7 1016.3 0.0
26/06:30am 21.6 15.8 4.2 32 8.6 ENE 24 32 13 17 1017.3 1016.0 0.0
26/06:00am 20.2 15.1 3.9 34 7.9 ENE 20 28 11 15 1016.9 1015.5 0.0
26/05:30am 19.5 14.3 3.6 35 7.7 ENE 20 30 11 16 1016.6 1015.2 0.0
26/05:00am 19.3 14.2 3.9 36 7.4 ENE 20 28 11 15 1016.4 1015.0 0.0
26/04:30am 19.0 14.2 4.4 38 7.1 E 19 26 10 14 1016.1 1014.7 0.0
26/04:00am 18.9 14.9 4.7 39 6.9 ENE 15 20 8 11 1016.4 1015.0 0.0
26/03:30am 19.2 15.2 4.9 39 7.0 E 15 22 8 12 1015.9 1014.5 0.0
26/03:00am 19.5 15.8 4.4 37 7.4 E 13 20 7 11 1016.0 1014.6 0.0
26/02:30am 20.0 16.2 3.7 34 7.9 E 13 20 7 11 1016.1 1014.7 0.0
26/02:00am 20.6 15.9 3.3 32 8.3 E 17 24 9 13 1016.1 1014.7 0.0
26/01:30am 21.4 17.0 2.6 29 9.0 E 15 22 8 12 1016.1 1014.7 0.0
26/01:00am 22.2 17.0 2.3 27 9.5 E 19 30 10 16 1016.2 1014.8 0.0
26/12:30am 22.9 17.1 2.4 26 9.9 E 22 32 12 17 1016.0 1014.6 0.0
26/12:00am 23.0 18.2 2.5 26 9.9 E 17 24 9 13 1016.5 1015.1 0.0
 
Date/Time
WST
Temp
°C
App
Temp
°C
Dew
Point
Rel
Hum
%
Delta-T
°C
Wind Press
QNH
hPa
Press
MSL
hPa
Rain
since 9 am
mm
Dir
 
Spd
km/h
Gust
km/h
Spd
kts
Gust
kts
25/11:30pm 23.4 18.0 2.3 25 10.2 E 20 30 11 16 1016.4 1015.0 0.0
25/11:00pm 24.0 17.8 2.2 24 10.5 E 24 37 13 20 1016.5 1015.1 0.0
25/10:30pm 24.5 18.8 2.6 24 10.7 E 22 35 12 19 1016.5 1015.1 0.0
25/10:00pm 25.2 19.5 2.6 23 11.1 E 22 33 12 18 1016.6 1015.2 0.0
25/09:30pm 25.6 19.5 2.9 23 11.3 E 24 33 13 18 1016.7 1015.3 0.0
25/09:00pm 26.1 20.0 2.7 22 11.6 E 24 32 13 17 1016.4 1015.0 0.0
25/08:30pm 26.9 20.8 2.7 21 12.1 E 24 37 13 20 1015.9 1014.5 0.0
25/08:00pm 27.4 22.5 1.8 19 12.6 E 17 20 9 11 1015.2 1013.8 0.0
25/07:30pm 28.1 23.3 -0.1 16 13.5 ESE 15 20 8 11 1014.9 1013.5 0.0
25/07:00pm 29.2 24.4 -0.1 15 14.1 E 15 20 8 11 1014.8 1013.3 0.0
25/06:30pm 30.4 24.6 -0.1 14 14.8 E 20 28 11 15 1014.7 1013.2 0.0
25/06:00pm 31.2 25.4 -1.5 12 15.6 E 19 26 10 14 1014.7 1013.2 0.0
25/05:30pm 31.7 27.1 -1.2 12 15.8 ENE 13 22 7 12 1014.8 1013.3 0.0
25/05:00pm 31.8 26.4 -1.1 12 15.9 NE 17 28 9 15 1014.7 1013.2 0.0
25/04:30pm 32.5 29.1 -1.7 11 16.4 NNE 6 15 3 8 1014.7 1013.2 0.0
25/04:00pm 32.7 27.3 -1.6 11 16.5 NE 17 20 9 11 1015.0 1013.6 0.0
25/03:30pm 32.5 27.1 -1.7 11 16.4 NNE 17 26 9 14 1015.3 1013.9 0.0
25/03:00pm 32.0 26.1 -2.1 11 16.2 ENE 19 28 10 15 1015.7 1014.3 0.0
25/02:30pm 31.8 25.7 -2.3 11 16.1 NNE 20 30 11 16 1015.9 1014.5 0.0
25/02:00pm 31.6 26.6 -1.2 12 15.8 E 15 24 8 13 1016.4 1015.0 0.0
25/01:30pm 31.5 27.0 -0.2 13 15.5 ESE 13 33 7 18 1016.6 1015.2 0.0
25/01:00pm 31.0 25.7 -0.6 13 15.3 E 17 26 9 14 1017.0 1015.6 0.0
25/12:30pm 30.2 25.1 0.7 15 14.5 E 17 26 9 14 1017.5 1016.2 0.0
25/12:00pm 29.5 24.2 1.9 17 13.8 ESE 19 28 10 15 1018.0 1016.6 0.0
25/11:30am 29.4 24.2 2.6 18 13.5 ENE 19 33 10 18 1018.6 1017.2 0.0
25/11:00am 28.1 23.6 4.4 22 12.2 NE 17 28 9 15 1019.1 1017.7 0.0
25/10:30am 26.6 21.9 5.0 25 11.2 NE 19 32 10 17 1019.6 1018.2 0.0
25/10:00am 25.4 21.1 5.1 27 10.4 NE 17 28 9 15 1020.1 1018.8 0.0
25/09:30am 24.5 19.7 5.8 30 9.7 NNE 20 28 11 15 1020.2 1018.9 0.0
25/09:00am 23.2 18.4 5.6 32 9.0 NE 20 30 11 16 1020.7 1019.3 0.0
25/08:30am 21.6 17.0 5.5 35 8.2 NE 19 26 10 14 1020.8 1019.4 0.0
25/08:00am 20.9 16.3 5.7 37 7.7 ENE 19 24 10 13 1020.9 1019.5 0.0
25/07:30am 19.2 14.5 6.0 42 6.6 E 20 28 11 15 1021.0 1019.6 0.0
25/07:00am 17.5 12.8 6.1 47 5.7 E 20 28 11 15 1020.9 1019.5 0.0
25/06:30am 16.0 11.9 6.2 52 4.8 E 17 26 9 14 1021.1 1019.7 0.0
25/06:00am 15.1 11.0 6.1 55 4.4 E 17 24 9 13 1020.8 1019.4 0.0
25/05:30am 14.4 11.5 6.3 58 4.0 ESE 11 15 6 8 1020.5 1019.2 0.0
25/05:00am 13.7 10.3 6.1 60 3.7 ESE 13 17 7 9 1020.2 1018.9 0.0
25/04:30am 13.8 11.2 6.2 60 3.7 ESE 9 15 5 8 1020.1 1018.8 0.0
25/04:00am 14.4 11.0 6.0 57 4.1 SE 13 17 7 9 1019.5 1018.1 0.0
25/03:30am 14.5 11.5 6.1 57 4.1 ESE 11 19 6 10 1019.3 1017.9 0.0
25/03:00am 14.8 10.3 5.9 55 4.3 ESE 19 26 10 14 1018.8 1017.4 0.0
25/02:30am 15.2 9.7 5.7 53 4.6 ESE 24 32 13 17 1018.7 1017.3 0.0
25/02:00am 15.6 10.3 5.2 50 5.0 ESE 22 32 12 17 1018.6 1017.2 0.0
25/01:30am 16.2 10.9 4.9 47 5.5 ESE 22 33 12 18 1018.8 1017.4 0.0
25/01:00am 17.1 11.2 3.8 41 6.3 ESE 24 32 13 17 1019.0 1017.6 0.0
25/12:30am 18.4 12.7 3.1 36 7.2 ESE 22 33 12 18 1019.1 1017.7 0.0
25/12:00am 19.0 13.6 2.4 33 7.8 ESE 20 32 11 17 1019.2 1017.8 0.0
 
Date/Time
WST
Temp
°C
App
Temp
°C
Dew
Point
Rel
Hum
%
Delta-T
°C
Wind Press
QNH
hPa
Press
MSL
hPa
Rain
since 9 am
mm
Dir
 
Spd
km/h
Gust
km/h
Spd
kts
Gust
kts
24/11:30pm 19.3 13.8 1.8 31 8.1 ESE 20 30 11 16 1019.4 1018.0 0.0
24/11:00pm 19.6 14.2 1.1 29 8.5 ESE 19 24 10 13 1019.5 1018.1 0.0
24/10:30pm 19.6 14.5 0.6 28 8.6 SE 17 19 9 10 1019.9 1018.6 0.0
24/10:00pm 20.9 15.8 0.7 26 9.3 E 17 20 9 11 1019.9 1018.6 0.0
24/09:30pm 22.2 16.6 0.1 23 10.1 E 19 26 10 14 1019.8 1018.4 0.0
24/09:00pm 22.8 17.1 -0.6 21 10.6 ESE 19 28 10 15 1019.6 1018.2 0.0
24/08:30pm 23.0 17.7 -0.5 21 10.7 ESE 17 20 9 11 1019.3 1017.9 0.0
24/08:00pm 23.3 18.3 -0.9 20 11.0 ESE 15 19 8 10 1019.0 1017.6 0.0

Other Formats:

Comma delimited format used in spreadsheet applications
http://www.bom.gov.au/fwo/IDW60801/IDW60801.95634.axf

JavaScript Object Notation format (JSON) in row-major order
http://www.bom.gov.au/fwo/IDW60801/IDW60801.95634.json